createdAt,value
2022-08-21T00:01:44.152Z,7.60
2022-08-21T00:04:13.620Z,7.80
2022-08-21T00:06:48.007Z,8.40
2022-08-21T00:09:16.370Z,7.80
2022-08-21T00:11:45.606Z,8.20
2022-08-21T00:14:13.843Z,8.23
2022-08-21T00:16:42.257Z,8.50
2022-08-21T00:19:10.091Z,8.30
2022-08-21T00:21:38.374Z,8.10
2022-08-21T00:24:06.784Z,7.23
2022-08-21T00:26:35.399Z,7.37
2022-08-21T00:29:06.241Z,7.47
2022-08-21T00:31:33.779Z,7.83
2022-08-21T00:34:02.153Z,7.50
2022-08-21T00:36:29.786Z,7.80
2022-08-21T00:38:58.085Z,7.90
2022-08-21T00:41:38.239Z,7.53
2022-08-21T00:44:09.357Z,7.60
2022-08-21T00:46:37.185Z,7.30
2022-08-21T00:49:04.929Z,7.50
2022-08-21T00:51:38.470Z,7.67
2022-08-21T00:54:13.639Z,7.93
2022-08-21T00:56:46.886Z,7.53
2022-08-21T00:59:18.134Z,7.40
2022-08-21T01:01:45.868Z,7.07
2022-08-21T01:04:14.047Z,8.17
2022-08-21T01:06:41.875Z,8.03
2022-08-21T01:09:09.778Z,8.47
2022-08-21T01:11:38.024Z,8.67
2022-08-21T01:14:05.885Z,7.97
2022-08-21T01:16:35.249Z,7.80
2022-08-21T01:19:03.406Z,8.17
2022-08-21T01:21:32.340Z,8.17
2022-08-21T01:24:01.207Z,9.90
2022-08-21T01:26:33.718Z,9.33
2022-08-21T01:29:04.722Z,8.20
2022-08-21T01:31:34.190Z,8.27
2022-08-21T01:34:02.031Z,8.30
2022-08-21T01:36:29.700Z,8.43
2022-08-21T01:38:59.231Z,8.33
2022-08-21T01:41:26.873Z,8.30
2022-08-21T01:43:54.424Z,7.93
2022-08-21T01:46:22.223Z,7.70
2022-08-21T01:48:50.083Z,7.50
2022-08-21T01:51:17.933Z,7.70
2022-08-21T01:53:46.033Z,6.67
2022-08-21T01:56:16.645Z,6.43
2022-08-21T01:58:45.594Z,6.70
2022-08-21T02:01:13.515Z,6.57
2022-08-21T02:03:42.567Z,6.57
2022-08-21T02:06:14.342Z,6.97
2022-08-21T02:08:42.074Z,6.00
2022-08-21T02:11:09.748Z,6.40
2022-08-21T02:13:39.003Z,5.70
2022-08-21T02:16:07.704Z,6.30
2022-08-21T02:18:35.590Z,6.57
2022-08-21T02:21:03.864Z,11.27
2022-08-21T02:23:31.473Z,5.70
2022-08-21T02:25:59.288Z,6.60
2022-08-21T02:28:27.732Z,5.60
2022-08-21T02:30:57.306Z,5.67
2022-08-21T02:33:25.137Z,5.57
2022-08-21T02:35:53.280Z,5.53
2022-08-21T02:38:22.312Z,5.03
2022-08-21T02:40:51.320Z,5.20
2022-08-21T02:43:19.978Z,5.10
2022-08-21T02:45:48.421Z,5.40
2022-08-21T02:48:18.721Z,4.60
2022-08-21T02:50:48.105Z,4.80
2022-08-21T02:53:17.321Z,5.27
2022-08-21T02:55:47.461Z,4.87
2022-08-21T02:58:16.058Z,5.77
2022-08-21T03:00:44.904Z,5.07
2022-08-21T03:03:13.362Z,5.30
2022-08-21T03:05:43.039Z,5.10
2022-08-21T03:08:11.991Z,5.27
2022-08-21T03:10:40.654Z,5.23
2022-08-21T03:13:08.907Z,4.60
2022-08-21T03:15:36.810Z,5.27
2022-08-21T03:18:06.585Z,5.17
2022-08-21T03:20:35.211Z,4.50
2022-08-21T03:23:12.764Z,4.30
2022-08-21T03:25:42.389Z,5.27
2022-08-21T03:28:13.255Z,4.70
2022-08-21T03:30:41.960Z,5.00
2022-08-21T03:33:13.193Z,4.70
2022-08-21T03:35:43.635Z,5.00
2022-08-21T03:38:13.566Z,4.97
2022-08-21T03:40:41.346Z,5.27
2022-08-21T03:43:09.968Z,5.40
2022-08-21T03:45:38.486Z,5.17
2022-08-21T03:48:07.719Z,4.83
2022-08-21T03:50:36.533Z,4.60
2022-08-21T03:53:16.937Z,4.57
2022-08-21T03:55:48.330Z,4.90
2022-08-21T03:58:17.518Z,4.60
2022-08-21T04:00:46.078Z,5.47
2022-08-21T04:03:13.915Z,4.80
2022-08-21T04:05:42.079Z,5.40
2022-08-21T04:08:09.691Z,4.83
2022-08-21T04:10:39.050Z,5.40
2022-08-21T04:13:09.017Z,4.80
2022-08-21T04:15:36.654Z,5.10
2022-08-21T04:18:04.631Z,4.60
2022-08-21T04:20:32.863Z,4.93
2022-08-21T04:23:00.613Z,4.53
2022-08-21T04:25:28.259Z,4.53
2022-08-21T04:27:55.988Z,4.97
2022-08-21T04:30:28.347Z,4.67
2022-08-21T04:32:57.718Z,4.63
2022-08-21T04:35:26.496Z,3.73
2022-08-21T04:37:54.135Z,4.70
2022-08-21T04:40:22.537Z,4.30
2022-08-21T04:42:52.441Z,5.23
2022-08-21T04:45:22.981Z,4.27
2022-08-21T04:47:53.479Z,4.70
2022-08-21T04:50:21.658Z,4.00
2022-08-21T04:53:04.837Z,4.00
2022-08-21T04:55:32.471Z,4.60
2022-08-21T04:58:01.016Z,4.23
2022-08-21T05:00:29.136Z,4.03
2022-08-21T05:03:00.098Z,4.00
2022-08-21T05:05:30.233Z,4.10
2022-08-21T05:07:58.794Z,3.63
2022-08-21T05:10:26.619Z,4.00
2022-08-21T05:12:54.641Z,3.97
2022-08-21T05:15:22.553Z,3.63
2022-08-21T05:17:55.425Z,4.47
2022-08-21T05:20:30.401Z,3.70
2022-08-21T05:22:58.644Z,3.50
2022-08-21T05:25:28.132Z,3.43
2022-08-21T05:27:56.349Z,3.40
2022-08-21T05:30:28.521Z,4.17
2022-08-21T05:32:58.255Z,3.57
2022-08-21T05:35:26.157Z,3.70
2022-08-21T05:37:55.082Z,3.70
2022-08-21T05:40:23.541Z,3.77
2022-08-21T05:42:54.236Z,4.07
2022-08-21T05:45:31.604Z,4.33
2022-08-21T05:48:10.707Z,3.97
2022-08-21T05:50:39.092Z,4.30
2022-08-21T05:53:08.581Z,4.17
2022-08-21T05:55:41.528Z,3.73
2022-08-21T05:58:13.206Z,3.50
2022-08-21T06:00:40.967Z,3.30
2022-08-21T06:03:12.361Z,3.50
2022-08-21T06:05:40.314Z,4.10
2022-08-21T06:08:09.162Z,3.57
2022-08-21T06:10:36.998Z,4.03
2022-08-21T06:13:05.707Z,3.60
2022-08-21T06:15:33.357Z,3.67
2022-08-21T06:18:00.937Z,4.10
2022-08-21T06:20:28.902Z,4.00
2022-08-21T06:22:56.934Z,4.40
2022-08-21T06:25:26.062Z,3.57
2022-08-21T06:27:54.564Z,4.13
2022-08-21T06:30:22.342Z,3.80
2022-08-21T06:32:50.056Z,3.60
2022-08-21T06:35:18.712Z,3.90
2022-08-21T06:37:46.230Z,4.17
2022-08-21T06:40:14.008Z,3.80
2022-08-21T06:42:43.465Z,3.80
2022-08-21T06:45:11.793Z,4.07
2022-08-21T06:47:39.361Z,4.23
2022-08-21T06:50:08.525Z,3.70
2022-08-21T06:52:36.241Z,4.00
2022-08-21T06:55:04.007Z,3.73
2022-08-21T06:57:31.531Z,3.60
2022-08-21T07:00:00.490Z,4.47
2022-08-21T07:02:28.080Z,3.70
2022-08-21T07:04:56.254Z,3.43
2022-08-21T07:07:23.937Z,3.60
2022-08-21T07:09:51.640Z,3.57
2022-08-21T07:12:19.278Z,3.20
2022-08-21T07:14:46.859Z,3.20
2022-08-21T07:17:15.835Z,3.50
2022-08-21T07:19:44.567Z,3.20
2022-08-21T07:22:12.358Z,3.27
2022-08-21T07:24:39.996Z,3.23
2022-08-21T07:27:10.109Z,2.20
2022-08-21T07:29:38.108Z,2.97
2022-08-21T07:32:06.219Z,2.83
2022-08-21T07:34:35.584Z,2.77
2022-08-21T07:37:10.103Z,3.43
2022-08-21T07:39:38.584Z,3.00
2022-08-21T07:42:08.414Z,2.40
2022-08-21T07:44:36.528Z,2.80
2022-08-21T07:47:04.394Z,2.50
2022-08-21T07:49:31.987Z,2.27
2022-08-21T07:52:00.978Z,2.43
2022-08-21T07:54:33.682Z,2.70
2022-08-21T07:57:02.367Z,2.20
2022-08-21T07:59:30.173Z,2.63
2022-08-21T08:01:58.004Z,2.40
2022-08-21T08:04:26.558Z,1.90
2022-08-21T08:06:55.109Z,2.00
2022-08-21T08:09:24.161Z,2.00
2022-08-21T08:11:52.164Z,2.10
2022-08-21T08:14:19.780Z,2.10
2022-08-21T08:16:54.595Z,2.20
2022-08-21T08:19:22.220Z,2.03
2022-08-21T08:21:50.143Z,1.87
2022-08-21T08:24:18.927Z,2.00
2022-08-21T08:26:53.469Z,2.20
2022-08-21T08:29:21.648Z,1.93
2022-08-21T08:31:49.355Z,1.90
2022-08-21T08:34:25.102Z,1.80
2022-08-21T08:36:54.199Z,1.90
2022-08-21T08:39:27.024Z,1.90
2022-08-21T08:42:03.456Z,2.30
2022-08-21T08:45:01.027Z,2.30
2022-08-21T08:47:29.951Z,2.40
2022-08-21T08:50:01.401Z,3.00
2022-08-21T08:52:30.187Z,3.30
2022-08-21T08:55:02.155Z,3.10
2022-08-21T08:57:31.826Z,2.60
2022-08-21T09:00:01.034Z,3.10
2022-08-21T09:02:31.087Z,2.00
2022-08-21T09:04:59.100Z,2.50
2022-08-21T09:07:31.402Z,2.30
2022-08-21T09:10:07.114Z,2.30
2022-08-21T09:12:47.490Z,2.23
2022-08-21T09:15:23.174Z,2.13
2022-08-21T09:18:00.309Z,2.87
2022-08-21T09:20:34.734Z,2.07
2022-08-21T09:23:08.921Z,3.00
2022-08-21T09:25:44.178Z,2.90
2022-08-21T09:28:15.706Z,3.07
2022-08-21T09:30:43.944Z,2.27
2022-08-21T09:33:13.759Z,2.60
2022-08-21T09:35:50.966Z,3.33
2022-08-21T09:38:26.956Z,2.70
2022-08-21T09:40:58.199Z,2.70
2022-08-21T09:43:27.469Z,2.87
2022-08-21T09:46:04.114Z,3.00
2022-08-21T09:48:32.573Z,2.90
2022-08-21T09:51:07.857Z,2.10
2022-08-21T09:53:36.316Z,2.50
2022-08-21T09:56:33.942Z,2.47
2022-08-21T09:59:03.695Z,2.70
2022-08-21T10:01:31.516Z,2.47
2022-08-21T10:04:04.426Z,2.60
2022-08-21T10:06:32.219Z,2.37
2022-08-21T10:09:06.711Z,2.87
2022-08-21T10:11:35.165Z,2.50
2022-08-21T10:14:09.637Z,2.23
2022-08-21T10:16:44.193Z,2.40
2022-08-21T10:19:16.851Z,2.20
2022-08-21T10:21:49.144Z,2.27
2022-08-21T10:24:31.049Z,2.27
2022-08-21T10:27:07.775Z,2.60
2022-08-21T10:29:41.752Z,2.63
2022-08-21T10:32:26.519Z,2.30
2022-08-21T10:35:01.393Z,1.90
2022-08-21T10:37:42.048Z,2.70
2022-08-21T10:40:14.492Z,2.33
2022-08-21T10:42:51.393Z,2.10
2022-08-21T10:45:31.402Z,2.47
2022-08-21T10:48:01.380Z,3.20
2022-08-21T10:50:32.276Z,3.30
2022-08-21T10:53:08.290Z,2.27
2022-08-21T10:55:39.248Z,2.13
2022-08-21T10:58:10.473Z,2.03
2022-08-21T11:00:43.201Z,2.90
2022-08-21T11:03:14.129Z,2.20
2022-08-21T11:08:32.130Z,1.80
2022-08-21T11:11:08.692Z,2.77
2022-08-21T11:13:41.314Z,2.87
2022-08-21T11:16:16.583Z,2.17
2022-08-21T11:18:47.103Z,2.37
2022-08-21T11:21:20.980Z,2.37
2022-08-21T11:23:52.241Z,1.87
2022-08-21T11:26:34.245Z,2.80
2022-08-21T11:29:06.223Z,3.10
2022-08-21T11:31:42.188Z,2.40
2022-08-21T11:34:16.365Z,2.20
2022-08-21T11:36:47.601Z,1.80
2022-08-21T11:39:18.835Z,2.40
2022-08-21T11:41:50.452Z,1.77
2022-08-21T11:44:24.099Z,2.20
2022-08-21T11:46:59.907Z,3.20
2022-08-21T11:49:36.369Z,2.03
2022-08-21T11:52:09.270Z,2.90
2022-08-21T11:54:39.936Z,1.87
2022-08-21T11:57:09.337Z,1.43
2022-08-21T11:59:41.445Z,2.40
2022-08-21T12:02:15.401Z,3.40
2022-08-21T12:04:47.247Z,4.80
2022-08-21T12:07:17.348Z,2.60
2022-08-21T12:09:54.191Z,1.60
2022-08-21T12:12:26.791Z,2.30
2022-08-21T12:15:06.714Z,2.30
2022-08-21T12:17:39.298Z,1.70
2022-08-21T12:20:17.579Z,1.90
2022-08-21T12:22:51.898Z,2.23
2022-08-21T12:25:21.988Z,1.60
2022-08-21T12:27:52.876Z,3.73
2022-08-21T12:30:25.755Z,3.77
2022-08-21T12:33:00.917Z,3.23
2022-08-21T12:35:33.344Z,2.33
2022-08-21T12:38:03.003Z,2.37
2022-08-21T12:40:33.704Z,6.50
2022-08-21T12:43:02.964Z,2.40
2022-08-21T12:45:32.592Z,2.20
2022-08-21T12:48:04.030Z,6.80
2022-08-21T12:50:35.477Z,1.80
2022-08-21T12:53:18.363Z,3.70
2022-08-21T12:55:48.634Z,3.83
2022-08-21T12:58:20.660Z,3.17
2022-08-21T13:00:52.390Z,2.83
2022-08-21T13:03:21.791Z,1.70
2022-08-21T13:05:52.495Z,2.00
2022-08-21T13:08:21.661Z,1.60
2022-08-21T13:10:51.561Z,2.50
2022-08-21T13:13:26.615Z,2.20
2022-08-21T13:15:59.608Z,2.00
2022-08-21T13:18:30.423Z,2.20
2022-08-21T13:21:08.601Z,2.07
2022-08-21T13:23:36.612Z,1.60
2022-08-21T13:26:17.842Z,2.27
2022-08-21T13:28:48.432Z,2.03
2022-08-21T13:31:19.489Z,2.33
2022-08-21T13:33:50.007Z,2.47
2022-08-21T13:36:20.687Z,3.73
2022-08-21T13:38:48.430Z,6.37
2022-08-21T13:41:22.392Z,6.57
2022-08-21T13:43:52.866Z,2.70
2022-08-21T13:46:24.445Z,4.30
2022-08-21T13:48:54.058Z,2.87
2022-08-21T13:51:21.840Z,2.93
2022-08-21T13:53:53.281Z,3.07
2022-08-21T13:56:25.458Z,3.73
2022-08-21T13:58:53.867Z,3.47
2022-08-21T14:01:23.312Z,3.50
2022-08-21T14:03:52.574Z,2.70
2022-08-21T14:06:24.493Z,5.83
2022-08-21T14:08:53.487Z,5.23
2022-08-21T14:11:21.616Z,2.70
2022-08-21T14:13:51.017Z,8.13
2022-08-21T14:16:20.114Z,6.50
2022-08-21T14:18:49.686Z,5.23
2022-08-21T14:21:27.322Z,3.70
2022-08-21T14:24:03.581Z,3.20
2022-08-21T14:26:32.140Z,3.83
2022-08-21T14:29:01.290Z,3.60
2022-08-21T14:31:31.811Z,4.90
2022-08-21T14:34:01.271Z,2.90
2022-08-21T14:36:29.690Z,2.53
2022-08-21T14:38:57.334Z,2.87
2022-08-21T14:41:28.669Z,2.93
2022-08-21T14:44:05.946Z,2.70
2022-08-21T14:46:36.621Z,2.30
2022-08-21T14:49:22.047Z,3.37
2022-08-21T14:51:54.776Z,3.40
2022-08-21T14:54:30.563Z,2.30
2022-08-21T14:57:02.143Z,3.00
2022-08-21T14:59:29.977Z,2.40
2022-08-21T15:01:57.593Z,3.43
2022-08-21T15:04:25.447Z,3.33
2022-08-21T15:06:53.002Z,3.57
2022-08-21T15:09:20.803Z,3.53
2022-08-21T15:11:48.710Z,3.17
2022-08-21T15:14:20.466Z,4.40
2022-08-21T15:16:49.407Z,4.50
2022-08-21T15:19:16.948Z,4.60
2022-08-21T15:21:44.562Z,4.93
2022-08-21T15:24:12.275Z,5.47
2022-08-21T15:26:39.959Z,4.93
2022-08-21T15:29:08.725Z,5.50
2022-08-21T15:31:38.430Z,5.70
2022-08-21T15:34:06.006Z,5.30
2022-08-21T15:36:33.625Z,5.97
2022-08-21T15:39:01.396Z,4.80
2022-08-21T15:41:29.090Z,5.77
2022-08-21T15:43:57.264Z,6.13
2022-08-21T15:46:25.235Z,5.50
2022-08-21T15:48:57.915Z,6.00
2022-08-21T15:51:27.667Z,6.47
2022-08-21T15:53:55.221Z,6.47
2022-08-21T15:56:24.516Z,6.00
2022-08-21T15:58:52.660Z,5.07
2022-08-21T16:01:21.324Z,9.70
2022-08-21T16:03:50.481Z,7.13
2022-08-21T16:06:38.408Z,10.60
2022-08-21T16:09:07.862Z,8.50
2022-08-21T16:11:35.895Z,9.13
2022-08-21T16:14:03.717Z,8.40
2022-08-21T16:16:32.656Z,13.33
2022-08-21T16:19:00.843Z,34.03
2022-08-21T16:21:29.829Z,12.30
2022-08-21T16:23:57.544Z,14.30
2022-08-21T16:26:25.376Z,7.90
2022-08-21T16:28:54.331Z,11.53
2022-08-21T16:31:24.493Z,8.13
2022-08-21T16:33:53.566Z,7.37
2022-08-21T16:36:27.197Z,5.77
2022-08-21T16:38:56.599Z,7.87
2022-08-21T16:41:25.610Z,5.20
2022-08-21T16:43:53.312Z,7.80
2022-08-21T16:46:21.837Z,8.80
2022-08-21T16:48:50.173Z,12.30
2022-08-21T16:51:18.526Z,10.43
2022-08-21T16:53:46.251Z,7.40
2022-08-21T16:56:16.124Z,7.20
2022-08-21T16:58:45.334Z,5.37
2022-08-21T17:01:15.223Z,6.20
2022-08-21T17:03:45.572Z,4.90
2022-08-21T17:06:13.824Z,9.10
2022-08-21T17:08:41.760Z,4.83
2022-08-21T17:11:12.280Z,6.47
2022-08-21T17:13:59.786Z,5.07
2022-08-21T17:16:31.879Z,4.20
2022-08-21T17:18:59.751Z,4.17
2022-08-21T17:21:27.564Z,6.10
2022-08-21T17:23:55.149Z,6.20
2022-08-21T17:26:23.173Z,5.83
2022-08-21T17:28:54.609Z,4.80
2022-08-21T17:31:24.553Z,4.70
2022-08-21T17:33:53.429Z,6.20
2022-08-21T17:36:22.006Z,5.37
2022-08-21T17:38:50.271Z,5.47
2022-08-21T17:41:20.177Z,4.53
2022-08-21T17:43:48.369Z,5.30
2022-08-21T17:46:18.438Z,6.63
2022-08-21T17:48:47.669Z,5.40
2022-08-21T17:51:15.288Z,12.70
2022-08-21T17:53:43.043Z,5.77
2022-08-21T17:56:10.667Z,4.20
2022-08-21T17:58:39.283Z,9.43
2022-08-21T18:01:07.146Z,11.20
2022-08-21T18:03:38.340Z,9.70
2022-08-21T18:06:08.382Z,7.33
2022-08-21T18:08:36.058Z,5.50
2022-08-21T18:11:04.936Z,4.27
2022-08-21T18:13:35.147Z,7.00
2022-08-21T18:16:03.094Z,6.40
2022-08-21T18:18:33.643Z,5.30
2022-08-21T18:21:01.540Z,6.53
2022-08-21T18:23:44.351Z,5.10
2022-08-21T18:26:14.033Z,6.10
2022-08-21T18:28:41.830Z,5.70
2022-08-21T18:31:09.971Z,6.60
2022-08-21T18:33:38.181Z,6.47
2022-08-21T18:36:06.168Z,6.30
2022-08-21T18:38:35.737Z,6.73
2022-08-21T18:41:09.381Z,6.23
2022-08-21T18:43:38.420Z,7.87
2022-08-21T18:46:06.492Z,7.80
2022-08-21T18:48:34.189Z,5.73
2022-08-21T18:51:02.907Z,7.40
2022-08-21T18:53:36.296Z,7.47
2022-08-21T18:56:04.856Z,6.13
2022-08-21T18:58:33.405Z,6.10
2022-08-21T19:01:01.337Z,6.60
2022-08-21T19:03:28.943Z,7.60
2022-08-21T19:05:57.173Z,7.27
2022-08-21T19:08:27.534Z,6.97
2022-08-21T19:10:58.270Z,7.63
2022-08-21T19:13:28.347Z,7.37
2022-08-21T19:15:56.577Z,7.67
2022-08-21T19:18:28.368Z,8.27
2022-08-21T19:20:57.511Z,6.77
2022-08-21T19:23:28.971Z,6.97
2022-08-21T19:26:01.234Z,6.63
2022-08-21T19:28:30.026Z,6.67
2022-08-21T19:33:50.666Z,11.37
2022-08-21T19:36:18.801Z,8.80
2022-08-21T19:38:47.264Z,9.83
2022-08-21T19:41:17.931Z,8.67
2022-08-21T19:43:47.995Z,8.27
2022-08-21T19:46:19.888Z,8.83
2022-08-21T19:48:48.041Z,8.10
2022-08-21T19:51:16.463Z,8.50
2022-08-21T19:53:44.466Z,9.03
2022-08-21T19:56:15.698Z,8.10
2022-08-21T19:58:47.391Z,6.57
2022-08-21T20:01:18.735Z,5.77
2022-08-21T20:03:53.861Z,6.67
2022-08-21T20:06:35.873Z,5.70
2022-08-21T20:09:04.356Z,5.90
2022-08-21T20:11:37.715Z,6.87
2022-08-21T20:14:07.152Z,6.47
2022-08-21T20:16:34.837Z,5.70
2022-08-21T20:19:05.210Z,6.73
2022-08-21T20:21:43.755Z,6.00
2022-08-21T20:27:01.822Z,6.80
2022-08-21T20:29:36.145Z,6.90
2022-08-21T20:32:19.535Z,6.03
2022-08-21T20:34:52.031Z,6.83
2022-08-21T20:37:22.366Z,5.87
2022-08-21T20:40:07.933Z,6.63
2022-08-21T20:42:35.789Z,7.60
2022-08-21T20:45:08.375Z,9.83
2022-08-21T20:47:55.879Z,9.97
2022-08-21T20:50:25.738Z,9.10
2022-08-21T20:52:55.281Z,9.50
2022-08-21T20:55:29.182Z,5.40
2022-08-21T20:58:00.549Z,5.40
2022-08-21T21:00:30.742Z,6.20
2022-08-21T21:03:04.222Z,5.50
2022-08-21T21:05:33.856Z,6.80
2022-08-21T21:08:03.451Z,5.60
2022-08-21T21:10:36.072Z,6.50
2022-08-21T21:13:06.408Z,5.27
2022-08-21T21:15:36.671Z,6.17
2022-08-21T21:18:14.113Z,6.07
2022-08-21T21:20:47.124Z,6.00
2022-08-21T21:23:23.034Z,7.30
2022-08-21T21:25:54.624Z,6.00
2022-08-21T21:28:28.628Z,5.80
2022-08-21T21:30:58.182Z,6.17
2022-08-21T21:36:20.486Z,7.10
2022-08-21T21:38:51.643Z,10.07
2022-08-21T21:41:25.002Z,6.80
2022-08-21T21:43:57.447Z,8.17
2022-08-21T21:46:32.427Z,10.50
2022-08-21T21:49:14.931Z,7.00
2022-08-21T21:51:55.800Z,7.40
2022-08-21T21:54:36.057Z,14.47
2022-08-21T21:57:11.503Z,6.90
2022-08-21T21:59:51.175Z,8.70
2022-08-21T22:02:26.031Z,11.00
2022-08-21T22:04:59.359Z,17.80
2022-08-21T22:07:34.278Z,14.43
2022-08-21T22:10:06.177Z,7.40
2022-08-21T22:12:53.794Z,6.50
2022-08-21T22:15:26.327Z,8.17
2022-08-21T22:18:00.391Z,10.80
2022-08-21T22:20:33.077Z,24.90
2022-08-21T22:23:05.029Z,9.53
2022-08-21T22:25:35.740Z,13.70
2022-08-21T22:28:05.338Z,14.27
2022-08-21T22:30:45.224Z,7.63
2022-08-21T22:33:16.353Z,10.27
2022-08-21T22:35:51.639Z,10.47
2022-08-21T22:38:30.081Z,11.00
2022-08-21T22:41:17.337Z,6.40
2022-08-21T22:43:52.819Z,6.67
2022-08-21T22:46:26.733Z,6.33
2022-08-21T22:48:58.496Z,5.70
2022-08-21T22:51:30.082Z,9.40
2022-08-21T22:54:00.250Z,6.53
2022-08-21T22:56:31.677Z,6.50
2022-08-21T22:59:01.890Z,6.77
2022-08-21T23:01:37.434Z,5.77
2022-08-21T23:04:14.851Z,5.23
2022-08-21T23:06:46.374Z,5.40
2022-08-21T23:09:19.235Z,4.87
2022-08-21T23:11:50.959Z,3.80
2022-08-21T23:14:19.462Z,5.30
2022-08-21T23:16:51.971Z,8.10
2022-08-21T23:19:28.271Z,5.30
2022-08-21T23:22:00.212Z,5.33
2022-08-21T23:24:39.574Z,5.20
2022-08-21T23:27:18.350Z,6.40
2022-08-21T23:29:51.953Z,5.53
2022-08-21T23:32:35.441Z,5.30
2022-08-21T23:35:11.614Z,5.40
2022-08-21T23:38:09.370Z,4.57
2022-08-21T23:40:51.199Z,6.27
2022-08-21T23:43:35.918Z,5.03
2022-08-21T23:46:09.901Z,5.13
2022-08-21T23:48:44.589Z,4.50
2022-08-21T23:51:14.428Z,3.63
2022-08-21T23:53:50.699Z,4.30
2022-08-21T23:56:24.524Z,3.87
2022-08-21T23:58:56.092Z,3.70
